Nearby METAR Reports

 

KLOT - Romeoville/Chi, Illinois, USA
Distance from station: SE 2mi, 4km
Updated: 06/22/2024 9:55am
Clear
Clear
 Wind from SSW
Wind: SSW 16 mph, 26 km/h, Gust: 25 mph, 41 km/h
Temperature: 86°F, 30°C
Heat Index: 92°F, 33°C
Dew Point: 72°F, 22°C
Humidity: 62%
Barometer: 29.95 inHg, 1014.2 hPa
Clouds: Clear
Visibility: 10 miles, 16 km
2024/06/22 14:55 KLOT 221455Z 21014G22KT 10SM CLR 30/22 A2995
KJOT - Joliet, Illinois, USA
Distance from station: SSW 8mi, 13km
Updated: 06/22/2024 9:55am
Clear
Clear
 Wind from SSW
Wind: SSW 14 mph, 22 km/h, Gust: 21 mph, 33 km/h
Temperature: 86°F, 30°C
Heat Index: 91°F, 33°C
Dew Point: 70°F, 21°C
Humidity: 59%
Barometer: 29.95 inHg, 1014.2 hPa
Clouds: Clear
Visibility: 10 miles, 16 km
2024/06/22 14:55 KJOT 221455Z AUTO 21012G18KT 10SM CLR 30/21 A2995 RMK AO2 T03000207
 
KC09 - Morris-Washburn, Illinois, USA
Distance from station: SW 20mi, 32km
Updated: 06/22/2024 9:55am
Clear
Clear
 Wind from SW
Wind: SW 17 mph, 28 km/h, Gust: 23 mph, 37 km/h
Temperature: 86°F, 30°C
Heat Index: 91°F, 33°C
Dew Point: 70°F, 21°C
Humidity: 59%
Barometer: 29.94 inHg, 1013.9 hPa
Clouds: Clear
Visibility: 10 miles, 16 km
2024/06/22 14:55 KC09 221455Z AUTO 23015G20KT 10SM CLR 30/21 A2994 RMK AO2 T02950206
KARR - Chicago/Aurora, Illinois, USA
Distance from station: WNW 21mi, 33km
Updated: 06/22/2024 9:52am
Clear
Clear
 Wind from SSW
Wind: SSW 13 mph, 20 km/h, Gust: 26 mph, 43 km/h
Temperature: 86°F, 30°C
Heat Index: 91°F, 33°C
Dew Point: 70°F, 21°C
Humidity: 59%
Barometer: 29.93 inHg, 1013.5 hPa
Clouds: Clear
Visibility: 8 miles, 13 km
2024/06/22 14:52 KARR 221452Z 21011G23KT 8SM CLR 30/21 A2993 RMK AO2 SLP127 T03000211 58017
 
KDPA - Chicago/Dupage, Illinois, USA
Distance from station: NNW 21mi, 34km
Updated: 06/22/2024 9:52am
Clear
Clear
 Wind from SW
Wind: SW 17 mph, 28 km/h, Gust: 24 mph, 39 km/h
Temperature: 84°F, 29°C
Heat Index: 88°F, 31°C
Dew Point: 70°F, 21°C
Humidity: 62%
Barometer: 29.93 inHg, 1013.5 hPa
Clouds: Clear
Visibility: 10 miles, 16 km
2024/06/22 14:52 KDPA 221452Z 22015G21KT 10SM CLR 29/21 A2993 RMK AO2 SLP127 T02890211 58016 $
KMDW - Chicago, Illinois, USA
Distance from station: ENE 22mi, 36km
Updated: 06/22/2024 9:53am
Mostly cloudy
Mostly cloudy
 Wind from SW
Wind: SW 24 mph, 39 km/h, Gust: 31 mph, 50 km/h
Temperature: 88°F, 31°C
Heat Index: 92°F, 33°C
Dew Point: 68°F, 20°C
Humidity: 52%
Barometer: 29.93 inHg, 1013.5 hPa
Clouds: Mostly cloudy
Visibility: 10 miles, 16 km
Cloud details: Few Clouds 9000 ft
Partly cloudy 18000 ft
Mostly cloudy 25000 ft
2024/06/22 14:53 KMDW 221453Z 23021G27KT 10SM FEW090 SCT180 BKN250 31/20 A2993 RMK AO2 PK WND 20029/1415 SLP121 T03110200 58017
 
K06C - Chicago/Schaumbg, Illinois, USA
Distance from station: N 25mi, 39km
Updated: 06/22/2024 9:55am
Clear
Clear
 Wind from SW
Wind: SW 9 mph, 15 km/h
Temperature: 82°F, 28°C
Heat Index: 86°F, 30°C
Dew Point: 70°F, 21°C
Humidity: 66%
Barometer: 29.93 inHg, 1013.5 hPa
Clouds: Clear
Visibility: 10 miles, 16 km
2024/06/22 14:55 K06C 221455Z AUTO 23008KT 10SM CLR 28/21 A2993 RMK AO1
KORD - Chicago O'hare, Illinois, USA
Distance from station: NNE 26mi, 43km
Updated: 06/22/2024 9:51am
Mostly cloudy
Mostly cloudy
 Wind from SSW
Wind: SSW 13 mph, 20 km/h, Gust: 24 mph, 39 km/h
Temperature: 86°F, 30°C
Heat Index: 91°F, 33°C
Dew Point: 70°F, 21°C
Humidity: 59%
Barometer: 29.92 inHg, 1013.2 hPa
Clouds: Mostly cloudy
Visibility: 10 miles, 16 km
Cloud details: Few Clouds 9000 ft
Few Clouds 18000 ft
Mostly cloudy 25000 ft
2024/06/22 14:51 KORD 221451Z 21011G21KT 10SM FEW090 FEW180 BKN250 30/21 A2992 RMK AO2 SLP124 T03000206 58017
 
KIGQ - Chicago/Lansing, Illinois, USA
Distance from station: ESE 31mi, 51km
Updated: 06/22/2024 9:55am
Clear
Clear
 Wind from WSW
Wind: WSW 20 mph, 31 km/h, Gust: 25 mph, 41 km/h
Temperature: 86°F, 30°C
Heat Index: 92°F, 33°C
Dew Point: 72°F, 22°C
Humidity: 62%
Barometer: 29.96 inHg, 1014.6 hPa
Clouds: Clear
Visibility: 10 miles, 16 km
2024/06/22 14:55 KIGQ 221455Z AUTO 24017G22KT 10SM CLR 30/22 A2996 RMK AO2 T03000221
KPWK - Palwaukee, Illinois, USA
Distance from station: NNE 36mi, 57km
Updated: 06/22/2024 9:52am
Partly cloudy
Partly cloudy
 Wind from SSW
Wind: SSW 14 mph, 22 km/h, Gust: 21 mph, 33 km/h
Temperature: 84°F, 29°C
Heat Index: 88°F, 31°C
Dew Point: 70°F, 21°C
Humidity: 62%
Barometer: 29.93 inHg, 1013.5 hPa
Clouds: Partly cloudy
Visibility: 10 miles, 16 km
Cloud details: Partly cloudy 9500 ft
2024/06/22 14:52 KPWK 221452Z 21012G18KT 10SM SCT095 29/21 A2993 RMK AO2 SLP130 T02890206 58017 $
 
KDKB - De Kalb, Illinois, USA
Distance from station: NW 36mi, 58km
Updated: 06/22/2024 9:55am
Clear
Clear
 Wind from SSW
Wind: SSW 18 mph, 30 km/h, Gust: 23 mph, 37 km/h
Temperature: 82°F, 28°C
Heat Index: 86°F, 30°C
Dew Point: 70°F, 21°C
Humidity: 66%
Barometer: 29.94 inHg, 1013.9 hPa
Clouds: Clear
Visibility: 10 miles, 16 km
2024/06/22 14:55 KDKB 221455Z AUTO 21016G20KT 10SM CLR 28/21 A2994 RMK AO2 T02760206
KGYY - Gary Regional, Indiana, USA
Distance from station: E 37mi, 59km
Updated: 06/22/2024 9:45am
Clear
Clear
 Wind from WSW
Wind: WSW 32 mph, 52 km/h, Gust: 30 mph, 48 km/h
Temperature: 86°F, 30°C
Heat Index: 95°F, 35°C
Dew Point: 75°F, 24°C
Humidity: 70%
Barometer: 29.95 inHg, 1014.2 hPa
Clouds: Clear
Visibility: 10 miles, 16 km
2024/06/22 14:45 KGYY 221445Z 25028G26KT 10SM CLR 30/24 A2995
 
KIKK - Kankakee, Illinois, USA
Distance from station: SSE 41mi, 67km
Updated: 06/22/2024 9:55am
Clear
Clear
 Wind from SW
Wind: SW 14 mph, 22 km/h, Gust: 24 mph, 39 km/h
Temperature: 86°F, 30°C
Heat Index: 89°F, 32°C
Dew Point: 68°F, 20°C
Humidity: 55%
Barometer: 29.99 inHg, 1015.6 hPa
Clouds: Clear
Visibility: 10 miles, 16 km
2024/06/22 14:55 KIKK 221455Z AUTO 23012G21KT 10SM CLR 30/20 A2999 RMK AO2 T03000202
© 2024, tkhuman.com | Weather-Display (10.37S-(b143)) | Valid XHTML 1.0 | Valid CSS

Never base important decisions on this or any weather information obtained from the Internet.